Time;durP1;ratioP1;P1;durP2;ratioP2;P2;SDS_P1;SDS_P2;PMS_P1;PMS_P2;Temp;Humidity;BMP_temperature;BMP_pressure;BME280_temperature;BME280_humidity;BME280_pressure;Samples;Min_cycle;Max_cycle;Signal;HPM_P1;HPM_P2
2021/03/17 00:01:15;;;;;;;6.78;5.53;;;7.50;78.30;;;;;;4974382;28;20026;-77
2021/03/17 00:03:40;;;;;;;7.10;5.55;;;7.30;78.10;;;;;;4956316;28;20393;-78
2021/03/17 00:06:06;;;;;;;6.07;5.35;;;7.40;78.60;;;;;;4972996;28;20046;-78
2021/03/17 00:08:32;;;;;;;5.28;4.68;;;7.20;79.40;;;;;;4973693;28;20090;-77
2021/03/17 00:10:58;;;;;;;5.50;4.72;;;7.20;79.70;;;;;;4974050;28;20034;-77
2021/03/17 00:13:26;;;;;;;6.85;5.70;;;7.30;79.20;;;;;;4974220;28;20034;-78
2021/03/17 00:15:53;;;;;;;5.80;5.20;;;7.40;79.70;;;;;;4973759;28;20049;-78
2021/03/17 00:18:19;;;;;;;6.13;5.47;;;7.30;79.50;;;;;;4972422;28;20023;-76
2021/03/17 00:20:45;;;;;;;6.80;5.30;;;7.30;79.80;;;;;;4972976;28;20089;-78
2021/03/17 00:23:11;;;;;;;7.88;5.47;;;7.10;79.50;;;;;;4973440;28;20035;-76
2021/03/17 00:25:39;;;;;;;7.25;5.15;;;7.20;79.20;;;;;;4974006;28;20071;-80
2021/03/17 00:28:05;;;;;;;5.95;5.35;;;7.10;79.90;;;;;;4974446;28;20034;-77
2021/03/17 00:30:32;;;;;;;5.32;4.80;;;7.30;79.10;;;;;;4974396;28;20030;-79
2021/03/17 00:33:00;;;;;;;5.70;5.10;;;7.40;78.30;;;;;;4973828;28;20058;-80
2021/03/17 00:35:27;;;;;;;5.63;4.90;;;7.40;78.60;;;;;;4956868;28;20106;-80
2021/03/17 00:37:53;;;;;;;5.72;5.00;;;7.30;78.80;;;;;;4974135;28;20030;-80
2021/03/17 00:40:19;;;;;;;10.45;5.15;;;7.10;79.10;;;;;;4973870;28;20090;-81
2021/03/17 00:42:45;;;;;;;6.78;5.60;;;7.20;79.20;;;;;;4954494;29;20038;-80
2021/03/17 00:45:12;;;;;;;6.25;4.97;;;7.20;80.00;;;;;;4954553;29;20055;-81
2021/03/17 00:47:38;;;;;;;5.68;5.05;;;7.20;79.40;;;;;;4937542;29;20035;-80
2021/03/17 00:50:06;;;;;;;5.68;5.00;;;7.20;79.90;;;;;;4954539;29;20030;-78
2021/03/17 00:52:32;;;;;;;8.07;5.28;;;7.20;80.00;;;;;;4954388;29;20051;-78
2021/03/17 00:54:58;;;;;;;6.93;5.03;;;7.30;79.80;;;;;;4954659;28;20054;-79
2021/03/17 00:57:24;;;;;;;4.80;4.30;;;7.30;79.50;;;;;;4954730;29;20024;-78
2021/03/17 00:59:49;;;;;;;5.40;4.90;;;7.10;79.30;;;;;;4954426;29;20043;-80
2021/03/17 01:02:24;;;;;;;5.20;4.22;;;7.20;79.00;;;;;;4953684;29;20024;-83
2021/03/17 01:04:50;;;;;;;6.22;5.00;;;7.30;77.80;;;;;;4952710;29;20043;-80
2021/03/17 01:07:17;;;;;;;5.10;4.60;;;7.30;78.70;;;;;;4953916;29;20039;-79
2021/03/17 01:09:43;;;;;;;5.35;4.57;;;7.30;78.80;;;;;;4954603;29;20027;-79
2021/03/17 01:12:10;;;;;;;5.97;5.20;;;7.10;78.70;;;;;;4953938;29;20023;-80
2021/03/17 01:14:37;;;;;;;5.25;4.75;;;7.20;79.10;;;;;;4954420;29;20043;-79
2021/03/17 01:17:04;;;;;;;8.85;5.05;;;7.30;79.20;;;;;;4952942;29;20405;-80
2021/03/17 01:19:31;;;;;;;5.30;4.47;;;7.20;79.30;;;;;;4954198;29;20106;-78
2021/03/17 01:21:57;;;;;;;8.50;5.35;;;7.20;79.00;;;;;;4954141;29;20023;-78
2021/03/17 01:24:23;;;;;;;6.18;4.95;;;7.20;79.20;;;;;;4936916;29;20042;-77
2021/03/17 01:26:48;;;;;;;5.05;4.35;;;7.20;78.70;;;;;;4954119;29;20098;-78
2021/03/17 01:29:14;;;;;;;8.95;4.70;;;7.20;78.60;;;;;;4954419;29;20035;-77
2021/03/17 01:31:40;;;;;;;4.90;4.40;;;7.20;78.80;;;;;;4953799;29;20086;-79
2021/03/17 01:34:06;;;;;;;5.50;4.90;;;7.00;78.50;;;;;;4954331;29;20418;-79
2021/03/17 01:36:32;;;;;;;5.38;4.60;;;7.20;78.60;;;;;;4953870;29;20031;-78
2021/03/17 01:38:58;;;;;;;5.20;4.20;;;7.10;78.20;;;;;;4953993;29;20039;-78
2021/03/17 01:41:23;;;;;;;5.82;4.60;;;7.20;78.30;;;;;;4961513;28;20074;-78
2021/03/17 01:43:49;;;;;;;4.20;3.80;;;7.00;78.60;;;;;;4972564;28;20031;-77
2021/03/17 01:46:15;;;;;;;5.50;4.70;;;7.00;78.00;;;;;;4975407;28;20023;-78
2021/03/17 01:48:41;;;;;;;6.18;4.35;;;7.00;78.20;;;;;;4975528;28;20029;-79
2021/03/17 01:51:07;;;;;;;6.47;4.43;;;7.00;78.50;;;;;;4976297;28;20033;-77
2021/03/17 01:53:36;;;;;;;4.72;4.10;;;7.00;78.10;;;;;;4976512;28;20030;-76
2021/03/17 01:56:03;;;;;;;4.97;4.40;;;7.00;77.20;;;;;;4976225;28;20027;-77
2021/03/17 01:58:31;;;;;;;4.00;3.55;;;7.00;78.00;;;;;;4976234;28;20031;-76
2021/03/17 02:00:58;;;;;;;5.43;4.68;;;7.00;76.80;;;;;;4976238;28;20065;-77
2021/03/17 02:03:25;;;;;;;5.38;4.43;;;7.20;76.60;;;;;;4959050;28;20027;-79
2021/03/17 02:05:51;;;;;;;5.40;4.90;;;7.20;75.80;;;;;;4976202;28;20030;-79
2021/03/17 02:08:35;;;;;;;5.47;4.30;;;7.10;76.20;;;;;;4976077;28;20432;-77
2021/03/17 02:11:02;;;;;;;5.18;4.45;;;7.10;76.30;;;;;;4976541;28;20077;-76
2021/03/17 02:13:39;;;;;;;5.68;4.18;;;7.10;76.00;;;;;;4976255;28;20110;-75
2021/03/17 02:16:46;;;;;;;4.80;4.05;;;7.00;76.10;;;;;;4974978;28;20555;-77
2021/03/17 02:19:12;;;;;;;4.55;4.03;;;7.10;76.10;;;;;;4976541;28;20488;-78
2021/03/17 02:22:08;;;;;;;5.03;4.43;;;7.00;76.50;;;;;;4976896;28;20035;-75
2021/03/17 02:24:58;;;;;;;4.97;4.00;;;7.00;76.50;;;;;;4975648;28;20404;-78
2021/03/17 02:27:36;;;;;;;5.38;4.63;;;7.00;77.00;;;;;;4976444;28;20030;-77
2021/03/17 02:30:20;;;;;;;5.60;4.50;;;7.00;77.00;;;;;;4974767;28;20038;-78
2021/03/17 02:33:07;;;;;;;5.57;4.85;;;6.90;77.30;;;;;;4975021;28;20046;-78
2021/03/17 02:35:35;;;;;;;6.47;4.30;;;7.00;76.50;;;;;;4976043;28;20034;-77
2021/03/17 02:38:05;;;;;;;5.60;3.97;;;7.00;76.90;;;;;;4976127;28;20023;-76
2021/03/17 02:40:34;;;;;;;6.18;4.50;;;6.80;77.00;;;;;;4958443;28;20516;-76
2021/03/17 02:43:18;;;;;;;6.07;4.50;;;6.90;76.60;;;;;;4956899;28;20355;-79
2021/03/17 02:45:51;;;;;;;4.78;4.25;;;6.90;76.90;;;;;;4938930;29;20405;-81
2021/03/17 02:48:31;;;;;;;4.88;4.10;;;7.00;76.00;;;;;;4955527;29;20039;-76
2021/03/17 02:51:11;;;;;;;4.38;3.95;;;6.80;76.60;;;;;;4956155;29;20051;-75
2021/03/17 02:53:39;;;;;;;5.10;4.30;;;6.90;77.20;;;;;;4956617;29;20465;-77
2021/03/17 02:56:09;;;;;;;5.03;4.18;;;6.90;77.40;;;;;;4954786;28;20421;-77
2021/03/17 02:58:37;;;;;;;5.30;4.30;;;6.80;76.90;;;;;;4956347;29;20023;-76
2021/03/17 03:01:04;;;;;;;5.18;4.35;;;6.70;77.70;;;;;;4956025;29;20046;-77
2021/03/17 03:03:33;;;;;;;5.03;4.32;;;6.90;77.30;;;;;;4956076;29;20087;-77
2021/03/17 03:06:01;;;;;;;5.30;4.38;;;6.90;76.90;;;;;;4956425;29;20042;-77
2021/03/17 03:08:27;;;;;;;6.50;4.60;;;6.80;77.40;;;;;;4956268;29;20019;-78
2021/03/17 03:10:55;;;;;;;4.75;4.25;;;6.80;77.40;;;;;;4956375;29;20067;-77
2021/03/17 03:13:25;;;;;;;6.40;4.20;;;6.70;77.80;;;;;;4956292;29;20035;-78
2021/03/17 03:15:53;;;;;;;5.10;4.60;;;6.70;78.00;;;;;;4955918;29;20103;-78
2021/03/17 03:18:22;;;;;;;5.20;4.47;;;6.80;77.40;;;;;;4955814;29;20023;-76
2021/03/17 03:20:48;;;;;;;5.70;4.20;;;6.60;77.30;;;;;;4955728;29;20436;-76
2021/03/17 03:23:18;;;;;;;4.93;4.40;;;6.60;78.30;;;;;;4955720;29;20085;-77
2021/03/17 03:25:49;;;;;;;4.47;4.05;;;6.50;78.90;;;;;;4955517;29;20114;-76
2021/03/17 03:28:15;;;;;;;;;;;6.50;79.50;;;;;;4955920;29;20027;-76
2021/03/17 03:30:47;;;;;;;5.30;4.55;;;6.60;78.90;;;;;;4955447;29;20290;-76
2021/03/17 03:33:14;;;;;;;5.03;4.53;;;6.50;78.50;;;;;;4955524;29;20027;-76
2021/03/17 03:35:41;;;;;;;10.70;4.55;;;6.50;79.50;;;;;;4956297;29;20106;-77
2021/03/17 03:38:08;;;;;;;5.43;4.50;;;6.50;79.70;;;;;;4955171;29;20020;-76
2021/03/17 03:40:35;;;;;;;5.00;4.15;;;6.50;79.30;;;;;;4954291;29;20413;-77
2021/03/17 03:43:01;;;;;;;5.40;4.50;;;6.60;77.30;;;;;;4973954;28;20051;-76
2021/03/17 03:45:27;;;;;;;5.72;4.65;;;6.60;77.20;;;;;;4974267;28;20054;-77
2021/03/17 03:47:53;;;;;;;5.80;4.55;;;6.50;77.20;;;;;;4957275;28;20026;-76
2021/03/17 03:50:22;;;;;;;5.15;4.50;;;6.50;77.00;;;;;;4957156;28;20447;-76
2021/03/17 03:53:05;;;;;;;5.10;4.57;;;6.50;76.40;;;;;;4975139;28;20554;-77
2021/03/17 03:55:42;;;;;;;4.60;4.10;;;6.60;75.20;;;;;;4974713;28;20038;-78
2021/03/17 03:58:13;;;;;;;5.72;4.60;;;6.60;73.70;;;;;;4975034;28;20047;-77
2021/03/17 04:00:41;;;;;;;7.20;4.47;;;6.60;72.70;;;;;;4973810;28;20362;-77
2021/03/17 04:03:09;;;;;;;4.75;4.07;;;6.70;71.90;;;;;;4974487;28;20023;-77
2021/03/17 04:05:38;;;;;;;5.18;4.43;;;6.70;71.60;;;;;;4973903;28;20717;-78
2021/03/17 04:08:18;;;;;;;6.13;4.47;;;6.70;71.80;;;;;;4974028;28;20034;-78
2021/03/17 04:10:52;;;;;;;4.95;4.45;;;6.80;71.30;;;;;;4974569;28;20366;-78
2021/03/17 04:13:20;;;;;;;5.50;4.90;;;6.70;71.20;;;;;;4973303;28;20089;-76
2021/03/17 04:15:47;;;;;;;4.88;4.20;;;6.70;71.60;;;;;;4972736;28;20049;-78
2021/03/17 04:18:15;;;;;;;5.40;4.38;;;6.70;71.60;;;;;;4974421;28;20030;-78
2021/03/17 04:20:45;;;;;;;4.70;4.20;;;6.70;71.10;;;;;;4956608;28;20503;-77
2021/03/17 04:23:12;;;;;;;4.85;4.32;;;6.70;71.10;;;;;;4956834;28;20408;-77
2021/03/17 04:25:52;;;;;;;5.05;4.50;;;6.70;71.10;;;;;;4956759;28;20413;-77
2021/03/17 04:28:21;;;;;;;5.10;4.60;;;6.80;71.20;;;;;;4972373;28;20030;-78
2021/03/17 04:30:48;;;;;;;6.18;4.80;;;6.70;71.80;;;;;;4973602;28;20027;-78
2021/03/17 04:33:15;;;;;;;6.00;4.25;;;6.70;72.00;;;;;;4973735;28;20465;-78
2021/03/17 04:35:45;;;;;;;4.68;4.28;;;6.70;72.60;;;;;;4974108;28;20114;-78
2021/03/17 04:38:13;;;;;;;5.18;4.50;;;6.70;73.00;;;;;;4973980;28;20380;-78
2021/03/17 04:40:40;;;;;;;5.45;4.82;;;6.60;73.70;;;;;;4956266;28;20592;-78
2021/03/17 04:43:07;;;;;;;5.35;4.57;;;6.60;74.80;;;;;;4955415;28;20023;-79
2021/03/17 04:45:33;;;;;;;5.65;4.63;;;6.30;75.10;;;;;;4953371;29;20059;-80
2021/03/17 04:47:59;;;;;;;5.63;4.70;;;6.20;75.70;;;;;;4954233;29;20086;-79
2021/03/17 04:50:27;;;;;;;5.30;4.53;;;6.20;76.60;;;;;;4953202;29;20061;-79
2021/03/17 04:52:53;;;;;;;6.25;4.80;;;6.20;76.90;;;;;;4954694;29;20030;-79
2021/03/17 04:55:20;;;;;;;5.25;4.40;;;6.30;76.10;;;;;;4954434;28;20031;-79
2021/03/17 04:57:48;;;;;;;6.15;4.72;;;6.30;75.70;;;;;;4937243;29;20031;-77
2021/03/17 05:00:19;;;;;;;5.82;4.97;;;6.30;75.60;;;;;;4954055;29;20378;-77
2021/03/17 05:02:53;;;;;;;5.78;4.60;;;6.20;76.20;;;;;;4953978;29;20110;-78
2021/03/17 05:05:19;;;;;;;5.30;4.80;;;6.30;76.40;;;;;;4936673;29;20067;-78
2021/03/17 05:07:47;;;;;;;5.43;4.88;;;6.50;76.00;;;;;;4954276;29;20027;-80
2021/03/17 05:10:14;;;;;;;5.35;4.50;;;6.50;75.30;;;;;;4954783;29;20030;-81
2021/03/17 05:12:41;;;;;;;6.90;5.40;;;6.50;75.10;;;;;;4954703;29;20343;-80
2021/03/17 05:15:11;;;;;;;5.20;4.65;;;6.50;75.70;;;;;;4953670;29;20046;-80
2021/03/17 05:17:38;;;;;;;6.45;5.13;;;6.40;75.80;;;;;;4953795;28;20027;-80
2021/03/17 05:20:10;;;;;;;5.43;4.70;;;6.50;75.00;;;;;;4954203;29;20031;-79
2021/03/17 05:22:36;;;;;;;5.70;5.05;;;6.50;74.10;;;;;;4936365;29;20023;-79
2021/03/17 05:25:06;;;;;;;6.55;4.88;;;6.50;74.60;;;;;;4953808;29;20397;-79
2021/03/17 05:27:34;;;;;;;5.45;4.30;;;6.50;74.20;;;;;;4952793;29;20024;-78
2021/03/17 05:30:01;;;;;;;5.53;4.88;;;6.60;74.10;;;;;;4953406;29;20433;-79
2021/03/17 05:32:28;;;;;;;5.85;5.00;;;6.60;73.40;;;;;;4953866;29;20093;-77
2021/03/17 05:34:57;;;;;;;7.35;4.68;;;6.60;72.90;;;;;;4952891;29;20374;-80
2021/03/17 05:37:25;;;;;;;6.05;4.95;;;6.70;72.60;;;;;;4936791;29;20034;-78
2021/03/17 05:39:51;;;;;;;5.30;4.65;;;6.60;72.90;;;;;;4954125;29;20027;-79
2021/03/17 05:42:17;;;;;;;5.55;4.63;;;6.60;73.00;;;;;;4962838;28;20556;-78
2021/03/17 05:44:43;;;;;;;6.18;4.82;;;6.60;73.10;;;;;;4971373;28;20138;-78
2021/03/17 05:47:10;;;;;;;5.95;5.25;;;6.60;72.80;;;;;;4973033;28;20077;-79
2021/03/17 05:49:38;;;;;;;7.00;4.90;;;6.70;72.50;;;;;;4955594;28;20664;-80
2021/03/17 05:52:07;;;;;;;5.72;4.82;;;6.40;73.20;;;;;;4971292;28;20476;-78
2021/03/17 05:54:33;;;;;;;7.47;4.95;;;6.40;74.00;;;;;;4972978;28;20093;-78
2021/03/17 05:57:01;;;;;;;5.75;4.80;;;6.20;75.10;;;;;;4955195;28;20051;-78
2021/03/17 05:59:28;;;;;;;5.63;4.68;;;6.40;74.80;;;;;;4971197;28;20027;-78
2021/03/17 06:01:59;;;;;;;5.88;4.95;;;6.60;74.20;;;;;;4972230;28;20043;-76
2021/03/17 06:04:28;;;;;;;7.90;4.97;;;6.70;73.90;;;;;;4965204;28;20468;-79
2021/03/17 06:06:59;;;;;;;8.10;5.10;;;6.80;73.30;;;;;;4963592;28;20035;-78
2021/03/17 06:09:26;;;;;;;7.07;5.35;;;6.70;73.30;;;;;;4971151;28;20029;-79
2021/03/17 06:11:53;;;;;;;8.10;5.20;;;6.80;72.70;;;;;;4954185;28;20181;-80
2021/03/17 06:14:24;;;;;;;6.53;4.97;;;6.90;71.70;;;;;;4972465;28;20097;-79
2021/03/17 06:17:03;;;;;;;5.35;4.68;;;7.10;69.90;;;;;;4954966;28;20434;-79
2021/03/17 06:19:32;;;;;;;5.80;5.07;;;7.20;68.70;;;;;;4972335;28;20166;-82
2021/03/17 06:21:59;;;;;;;12.50;7.95;;;7.20;68.10;;;;;;4972242;28;20083;-78
2021/03/17 06:24:27;;;;;;;17.60;8.27;;;7.50;68.00;;;;;;4954641;28;20031;-79
2021/03/17 06:26:53;;;;;;;21.23;13.77;;;7.50;71.40;;;;;;4972028;28;20042;-78
2021/03/17 06:29:19;;;;;;;5.40;4.90;;;7.80;68.60;;;;;;4972095;28;20034;-79
2021/03/17 06:31:47;;;;;;;7.47;5.00;;;7.30;67.60;;;;;;4974587;28;20033;-83
2021/03/17 06:34:13;;;;;;;13.95;4.97;;;7.40;68.10;;;;;;4975417;28;20022;-78
2021/03/17 06:36:51;;;;;;;6.50;5.25;;;7.30;68.20;;;;;;4974610;28;20070;-78
2021/03/17 06:39:17;;;;;;;7.20;4.70;;;7.40;67.90;;;;;;4974491;28;20034;-78
2021/03/17 06:41:44;;;;;;;6.07;5.07;;;7.50;67.20;;;;;;4973960;28;20069;-79
2021/03/17 06:44:09;;;;;;;5.20;4.55;;;7.50;66.80;;;;;;4974690;28;20054;-78
2021/03/17 06:46:35;;;;;;;6.95;5.35;;;7.50;66.40;;;;;;4975122;28;20038;-78
2021/03/17 06:49:01;;;;;;;6.43;5.03;;;7.60;66.20;;;;;;4974775;28;20133;-78
2021/03/17 06:51:31;;;;;;;6.22;4.60;;;7.50;66.10;;;;;;4957323;28;20027;-77
2021/03/17 06:53:59;;;;;;;5.90;4.90;;;7.50;65.00;;;;;;4957215;28;20023;-78
2021/03/17 06:56:32;;;;;;;5.68;4.55;;;7.40;65.30;;;;;;4974532;28;20109;-76
2021/03/17 06:59:06;;;;;;;5.47;4.43;;;7.50;65.30;;;;;;4974665;28;20027;-76
2021/03/17 07:01:36;;;;;;;5.53;4.22;;;7.40;65.00;;;;;;4946051;28;20037;-78
2021/03/17 07:04:11;;;;;;;11.20;7.00;;;7.30;65.00;;;;;;4973593;28;20049;-78
2021/03/17 07:06:39;;;;;;;6.25;4.60;;;7.40;65.70;;;;;;4956858;28;20062;-78
2021/03/17 07:09:25;;;;;;;8.00;4.90;;;7.40;65.20;;;;;;4974079;28;20019;-76
2021/03/17 07:12:12;;;;;;;7.95;5.28;;;7.60;65.10;;;;;;4956982;28;20026;-76
2021/03/17 07:14:45;;;;;;;5.07;4.57;;;7.50;64.00;;;;;;4952861;28;20114;-77
2021/03/17 07:17:31;;;;;;;5.68;4.72;;;7.50;64.10;;;;;;4953760;29;20034;-79
2021/03/17 07:19:57;;;;;;;6.38;5.10;;;7.60;64.10;;;;;;4973412;28;20029;-78
2021/03/17 07:22:24;;;;;;;4.78;4.10;;;7.70;64.20;;;;;;4973916;28;20027;-78
2021/03/17 07:24:55;;;;;;;4.68;4.05;;;7.60;62.90;;;;;;4973885;28;20029;-78
2021/03/17 07:27:26;;;;;;;5.75;4.28;;;7.80;63.90;;;;;;4974144;28;20034;-78
2021/03/17 07:29:58;;;;;;;5.60;4.55;;;8.00;62.70;;;;;;4973700;28;20102;-77
2021/03/17 07:32:25;;;;;;;9.27;4.80;;;8.20;62.40;;;;;;4974188;28;20031;-77
2021/03/17 07:34:50;;;;;;;5.03;4.22;;;8.40;62.20;;;;;;4973577;28;20030;-77
2021/03/17 07:37:16;;;;;;;5.28;4.38;;;8.50;61.30;;;;;;4972455;28;20093;-77
2021/03/17 07:39:43;;;;;;;5.35;4.00;;;8.50;61.70;;;;;;4973797;28;20031;-76
2021/03/17 07:42:13;;;;;;;5.40;4.18;;;8.50;61.50;;;;;;4967677;28;20045;-77
2021/03/17 07:44:42;;;;;;;5.18;4.28;;;8.50;61.60;;;;;;4954019;28;20074;-77
2021/03/17 07:47:10;;;;;;;6.75;4.40;;;8.40;61.00;;;;;;4953347;29;20431;-77
2021/03/17 07:49:48;;;;;;;5.85;4.20;;;8.40;61.10;;;;;;4954449;29;20055;-80
2021/03/17 07:52:21;;;;;;;5.53;4.25;;;8.50;61.00;;;;;;4954059;29;20047;-76
2021/03/17 07:54:52;;;;;;;6.93;4.43;;;8.50;60.90;;;;;;4959406;28;20087;-78
2021/03/17 07:57:20;;;;;;;;;;;8.70;60.50;;;;;;4972432;28;20787;-77
2021/03/17 07:59:47;;;;;;;4.82;4.10;;;8.70;60.10;;;;;;4969111;28;19921;-78
2021/03/17 08:02:14;;;;;;;6.60;4.40;;;8.70;59.50;;;;;;4954237;29;20031;-77
2021/03/17 08:04:40;;;;;;;5.53;4.32;;;8.90;60.30;;;;;;4953608;28;20413;-77
2021/03/17 08:07:06;;;;;;;5.20;4.63;;;8.80;59.20;;;;;;4952390;29;20031;-77
2021/03/17 08:09:33;;;;;;;7.40;4.72;;;8.70;60.00;;;;;;4953684;29;20083;-76
2021/03/17 08:12:02;;;;;;;5.70;4.65;;;9.00;60.30;;;;;;4953901;29;20030;-76
2021/03/17 08:14:29;;;;;;;5.60;4.03;;;9.30;60.20;;;;;;4954018;28;20110;-77
2021/03/17 08:16:55;;;;;;;5.57;3.80;;;9.70;59.80;;;;;;4956894;28;20421;-77
2021/03/17 08:19:26;;;;;;;6.18;4.25;;;9.50;58.40;;;;;;4961587;28;20030;-78
2021/03/17 08:22:04;;;;;;;4.95;3.78;;;9.90;58.50;;;;;;4959755;28;20126;-77
2021/03/17 08:24:36;;;;;;;5.25;3.88;;;10.10;57.50;;;;;;4959542;28;20029;-78
2021/03/17 08:27:05;;;;;;;5.05;3.47;;;9.80;56.30;;;;;;4963571;28;20023;-78
2021/03/17 08:29:43;;;;;;;5.72;3.80;;;9.80;56.80;;;;;;4968439;28;20030;-77
2021/03/17 08:32:11;;;;;;;5.15;4.00;;;9.90;57.20;;;;;;4953549;29;20085;-77
2021/03/17 08:34:37;;;;;;;7.18;4.10;;;9.80;57.00;;;;;;4953706;29;20058;-78
2021/03/17 08:37:09;;;;;;;4.85;3.75;;;9.10;57.10;;;;;;4936055;29;20162;-78
2021/03/17 08:39:37;;;;;;;5.38;4.15;;;9.20;57.30;;;;;;4935964;29;20122;-80
2021/03/17 08:42:26;;;;;;;5.15;4.15;;;9.00;60.10;;;;;;4963713;28;20487;-77
2021/03/17 08:44:53;;;;;;;5.40;3.97;;;9.00;58.90;;;;;;4964575;28;20451;-78
2021/03/17 08:47:33;;;;;;;4.53;3.75;;;9.30;58.50;;;;;;4964256;28;20031;-76
2021/03/17 08:50:20;;;;;;;6.63;4.40;;;8.70;59.10;;;;;;4935651;29;20027;-77
2021/03/17 08:52:48;;;;;;;7.53;4.30;;;9.00;59.40;;;;;;4935175;29;20511;-77
2021/03/17 08:55:17;;;;;;;6.05;4.00;;;9.30;57.70;;;;;;4951537;28;20114;-77
2021/03/17 08:57:50;;;;;;;4.57;3.60;;;9.40;57.40;;;;;;4970788;28;20050;-77
2021/03/17 09:00:41;;;;;;;5.95;3.88;;;8.90;57.40;;;;;;4968780;28;20030;-76
2021/03/17 09:03:06;;;;;;;5.68;3.70;;;9.20;58.10;;;;;;4972542;28;20369;-76
2021/03/17 09:05:33;;;;;;;5.80;3.70;;;9.40;57.00;;;;;;4954560;28;20497;-76
2021/03/17 09:08:07;;;;;;;7.95;3.63;;;9.30;56.30;;;;;;4971842;28;20059;-77
2021/03/17 09:10:39;;;;;;;5.95;4.18;;;9.60;56.50;;;;;;4972023;28;20027;-78
2021/03/17 09:13:05;;;;;;;5.47;3.80;;;9.60;56.30;;;;;;4971687;28;20082;-77
2021/03/17 09:15:44;;;;;;;5.70;3.97;;;8.80;56.50;;;;;;4961503;28;20027;-77
2021/03/17 09:18:10;;;;;;;6.57;4.00;;;9.00;56.70;;;;;;4952912;29;20089;-78
2021/03/17 09:20:45;;;;;;;5.22;3.90;;;9.30;56.40;;;;;;4935351;29;20035;-76
2021/03/17 09:23:15;;;;;;;6.25;4.13;;;9.50;55.70;;;;;;4951801;29;20489;-77
2021/03/17 09:25:55;;;;;;;5.97;4.28;;;9.30;55.80;;;;;;4951330;29;20039;-77
2021/03/17 09:28:27;;;;;;;8.18;3.95;;;9.40;56.70;;;;;;4960533;28;20058;-75
2021/03/17 09:30:59;;;;;;;5.70;4.25;;;9.50;56.40;;;;;;4961176;28;20031;-77
2021/03/17 09:33:34;;;;;;;6.55;4.20;;;9.00;55.90;;;;;;4962149;28;20027;-76
2021/03/17 09:36:01;;;;;;;5.30;4.20;;;9.40;56.70;;;;;;4962675;28;20061;-75
2021/03/17 09:38:30;;;;;;;6.13;4.60;;;9.20;56.70;;;;;;4962115;28;20027;-76
2021/03/17 09:41:13;;;;;;;5.68;4.35;;;9.40;56.70;;;;;;4948146;28;20033;-77
2021/03/17 09:43:47;;;;;;;6.05;4.47;;;9.60;55.90;;;;;;4971225;28;20412;-77
2021/03/17 09:46:32;;;;;;;8.23;4.68;;;9.50;56.10;;;;;;4962635;28;20043;-77
2021/03/17 09:49:22;;;;;;;7.47;4.65;;;9.50;57.00;;;;;;4964367;28;20031;-77
2021/03/17 09:51:54;;;;;;;5.50;4.47;;;9.30;56.10;;;;;;4944742;28;20133;-77
2021/03/17 09:54:26;;;;;;;6.43;4.38;;;8.90;56.60;;;;;;4981463;28;20031;-77
2021/03/17 09:57:01;;;;;;;7.03;4.90;;;9.10;57.40;;;;;;4950130;28;20024;-76
2021/03/17 09:59:33;;;;;;;5.68;4.43;;;9.50;57.10;;;;;;4965134;28;20389;-77
2021/03/17 10:02:19;;;;;;;6.05;4.65;;;9.90;56.30;;;;;;4971652;28;20094;-76
2021/03/17 10:04:51;;;;;;;7.65;4.82;;;10.10;55.40;;;;;;4954522;28;20031;-77
2021/03/17 10:07:18;;;;;;;7.32;4.97;;;9.90;55.40;;;;;;4975110;28;20495;-77
2021/03/17 10:09:45;;;;;;;5.30;4.00;;;9.70;55.40;;;;;;4975296;28;20034;-76
2021/03/17 10:12:15;;;;;;;5.72;4.30;;;9.80;54.90;;;;;;4975077;28;20077;-78
2021/03/17 10:14:46;;;;;;;5.22;4.13;;;9.80;56.20;;;;;;4971388;28;20015;-77
2021/03/17 10:17:14;;;;;;;6.07;4.25;;;9.80;55.30;;;;;;4958420;28;20038;-77
2021/03/17 10:19:41;;;;;;;5.43;4.28;;;9.80;55.80;;;;;;4974785;28;20516;-76
2021/03/17 10:22:08;;;;;;;8.00;4.90;;;9.30;55.80;;;;;;4973031;28;20039;-78
2021/03/17 10:24:42;;;;;;;8.15;6.00;;;9.60;57.50;;;;;;4973116;28;20030;-76
2021/03/17 10:27:13;;;;;;;7.07;4.68;;;9.80;55.80;;;;;;4962900;28;20122;-76
2021/03/17 10:29:39;;;;;;;;;;;10.00;55.30;;;;;;4954972;28;20032;-75
2021/03/17 10:32:06;;;;;;;7.80;4.10;;;10.10;55.40;;;;;;4957022;28;19930;-77
2021/03/17 10:34:32;;;;;;;5.95;4.40;;;10.10;55.40;;;;;;4955203;28;20023;-76
2021/03/17 10:36:59;;;;;;;5.43;4.03;;;10.10;55.70;;;;;;4954862;29;20031;-78
2021/03/17 10:39:33;;;;;;;6.53;4.40;;;10.20;55.60;;;;;;4953603;29;20409;-75
2021/03/17 10:41:59;;;;;;;7.30;4.18;;;10.20;55.80;;;;;;4962219;28;20055;-75
2021/03/17 10:44:30;;;;;;;6.10;4.47;;;10.60;55.80;;;;;;4964183;28;20083;-77
2021/03/17 10:47:07;;;;;;;;;;;10.80;54.50;;;;;;4972751;28;20022;-77
2021/03/17 10:49:43;;;;;;;5.95;4.03;;;11.00;53.80;;;;;;4954047;28;20339;-77
2021/03/17 10:52:09;;;;;;;5.25;4.10;;;10.80;53.30;;;;;;4964467;28;20400;-77
2021/03/17 10:54:40;;;;;;;5.65;4.30;;;10.50;53.40;;;;;;4951475;28;20042;-78
2021/03/17 10:57:07;;;;;;;4.65;3.80;;;10.10;53.80;;;;;;4954938;28;20176;-76
2021/03/17 10:59:38;;;;;;;7.15;4.65;;;10.10;54.40;;;;;;4953890;28;20062;-76
2021/03/17 11:02:21;;;;;;;6.30;4.57;;;9.80;55.50;;;;;;4937623;29;20023;-78
2021/03/17 11:05:22;;;;;;;6.68;4.85;;;9.80;55.50;;;;;;4950998;28;20043;-78
2021/03/17 11:08:05;;;;;;;7.43;4.82;;;9.70;56.40;;;;;;4954445;29;20415;-78
2021/03/17 11:10:39;;;;;;;8.05;4.55;;;9.40;56.00;;;;;;4952166;28;20098;-78
2021/03/17 11:13:16;;;;;;;8.68;4.45;;;9.80;56.30;;;;;;4954318;28;20130;-78
2021/03/17 11:15:51;;;;;;;5.20;3.67;;;9.70;56.30;;;;;;4954596;28;20030;-77
2021/03/17 11:18:27;;;;;;;6.43;4.50;;;9.20;56.70;;;;;;4953345;29;20122;-77
2021/03/17 11:21:17;;;;;;;6.57;3.83;;;9.20;57.20;;;;;;4962046;28;20090;-78
2021/03/17 11:23:43;;;;;;;6.50;4.20;;;9.80;57.20;;;;;;4943084;28;20071;-78
2021/03/17 11:26:26;;;;;;;5.82;4.60;;;10.70;55.50;;;;;;4953359;29;20043;-77
2021/03/17 11:28:54;;;;;;;5.43;4.40;;;10.00;55.50;;;;;;4952736;28;20019;-78
2021/03/17 11:31:40;;;;;;;10.30;4.60;;;9.30;55.50;;;;;;4961660;28;20488;-77
2021/03/17 11:34:08;;;;;;;6.35;5.07;;;9.80;56.10;;;;;;4937322;28;20130;-78
2021/03/17 11:36:34;;;;;;;5.10;3.88;;;9.80;55.50;;;;;;4973630;28;20031;-79
2021/03/17 11:39:12;;;;;;;5.03;4.20;;;9.20;56.60;;;;;;4972834;28;20383;-78
2021/03/17 11:41:39;;;;;;;5.70;4.30;;;9.10;57.70;;;;;;4969411;28;20027;-78
2021/03/17 11:44:06;;;;;;;5.85;4.90;;;8.80;58.90;;;;;;4961945;28;20047;-78
2021/03/17 11:46:32;;;;;;;6.88;4.53;;;9.40;58.70;;;;;;4964661;28;20097;-79
2021/03/17 11:48:59;;;;;;;6.13;4.70;;;9.90;58.40;;;;;;4968240;28;20093;-79
2021/03/17 11:51:25;;;;;;;9.82;4.15;;;10.40;57.30;;;;;;4969886;28;20089;-79
2021/03/17 11:53:52;;;;;;;5.75;4.28;;;10.20;57.60;;;;;;4971585;28;20026;-80
2021/03/17 11:56:19;;;;;;;5.00;4.05;;;10.90;57.20;;;;;;4966153;28;20456;-78
2021/03/17 11:58:45;;;;;;;5.22;4.15;;;11.10;55.30;;;;;;4973050;28;20110;-79
2021/03/17 12:01:11;;;;;;;4.35;3.80;;;9.90;57.10;;;;;;4970359;28;20082;-78
2021/03/17 12:03:41;;;;;;;6.35;4.50;;;9.30;58.20;;;;;;4966893;28;20034;-78
2021/03/17 12:06:07;;;;;;;6.13;4.70;;;9.50;59.10;;;;;;4968906;28;20397;-77
2021/03/17 12:08:33;;;;;;;7.40;4.40;;;9.90;59.00;;;;;;4967284;28;20027;-79
2021/03/17 12:10:59;;;;;;;7.55;5.00;;;9.50;58.80;;;;;;4972591;28;20479;-78
2021/03/17 12:13:25;;;;;;;5.82;4.68;;;9.80;58.80;;;;;;4964986;28;20545;-78
2021/03/17 12:15:51;;;;;;;9.10;5.32;;;10.40;54.60;;;;;;4970429;28;20034;-77
2021/03/17 12:18:18;;;;;;;5.50;4.28;;;10.60;53.70;;;;;;4966916;28;20037;-77
2021/03/17 12:20:44;;;;;;;7.90;4.50;;;9.80;55.20;;;;;;4961737;28;20030;-77
2021/03/17 12:23:11;;;;;;;8.50;4.93;;;10.00;55.20;;;;;;4951188;28;20117;-78
2021/03/17 12:25:37;;;;;;;6.10;4.00;;;10.40;54.70;;;;;;4963705;28;20026;-78
2021/03/17 12:28:03;;;;;;;12.75;4.68;;;10.00;55.80;;;;;;4950228;28;20563;-78
2021/03/17 12:30:29;;;;;;;8.10;5.53;;;10.60;55.00;;;;;;4964470;28;20027;-77
2021/03/17 12:32:55;;;;;;;8.10;5.47;;;11.80;53.40;;;;;;4938486;29;20034;-77
2021/03/17 12:35:23;;;;;;;6.20;4.50;;;12.00;51.70;;;;;;4950892;28;20043;-77
2021/03/17 12:37:52;;;;;;;5.57;4.10;;;10.90;52.40;;;;;;4967088;28;20185;-77
2021/03/17 12:40:20;;;;;;;4.88;3.90;;;10.60;53.70;;;;;;4960655;28;20385;-76
2021/03/17 12:42:46;;;;;;;6.38;3.80;;;10.90;53.70;;;;;;4953262;28;20077;-76
2021/03/17 12:45:14;;;;;;;6.25;4.38;;;10.10;55.30;;;;;;4970768;28;20058;-76
2021/03/17 12:47:41;;;;;;;6.55;4.55;;;10.50;56.00;;;;;;4971818;28;20030;-77
2021/03/17 12:50:10;;;;;;;6.78;4.50;;;10.40;54.90;;;;;;4946158;28;20027;-77
2021/03/17 12:52:35;;;;;;;6.00;4.40;;;12.10;53.90;;;;;;4963219;28;20030;-77
2021/03/17 12:55:01;;;;;;;10.30;4.53;;;15.60;47.80;;;;;;4971192;28;20495;-78
2021/03/17 12:57:29;;;;;;;5.05;3.67;;;16.80;44.10;;;;;;4971938;28;20031;-77
2021/03/17 12:59:56;;;;;;;10.63;4.32;;;14.80;42.50;;;;;;4971094;28;20439;-78
2021/03/17 13:02:23;;;;;;;6.65;3.97;;;16.80;43.90;;;;;;4953904;28;20504;-77
2021/03/17 13:04:49;;;;;;;5.53;3.80;;;15.90;43.40;;;;;;4971754;28;20042;-77
2021/03/17 13:07:15;;;;;;;6.68;4.00;;;13.90;43.40;;;;;;4954595;28;20031;-77
2021/03/17 13:09:40;;;;;;;10.25;4.18;;;13.20;47.90;;;;;;4952665;28;20055;-77